Guanajuato International Airport
MMLO : now visible

Airfield :











YOU CAN JOIN US ON...

 
LOGIN :

Register | Disclaimer

   EN    FR    IT 

 









Legend :    VFR   Marginal VFR   IFR   Intensive IFR   Very Intensive IFR
Visi :
Ceiling :
>= 8 km
>= 3000ft
5 to 8 km
1000 to 3000 ft
1500m to 5 km
500 to 1000 ft
800 to 1500m
200 to 500 ft
< 800m
< 200 ft
Symbols :   Thunderstorms  Fog  Heavy snow  Heavy precipitations  Wind > 20 kt






- Airport Elevation : 5956 ft
- IATA code : BJX


MMLO - Guanajuato International

CURRENT METAR :
  • 061740Z 12005KT 8SM SKC 23/04 A3039 RMK SLP182 57007 913

EXPIRED METARs :
  • 061640Z 00000KT 10SM SKC 20/04 A3041
  • 061540Z 15004KT 10SM SKC 17/05 A3042

TAF TAF MMLO
Valid from the 06 at 18:00 until the 07 at 18:00 UTC


061620Z 0618/0718 06012KT P6SM SKC
FM070400 00000KT P6SM SKC
TEMPO 0711/0715 5SM HZ SCT015
FM071600 11006KT P6SM SCT030



MET'MAP, your aeronautical weather chart ! - Copyright ORBIFLY December 2007 - Disclaimer

ORBIFLY MET'MAP TEAM :

Programming & Development : Alexandra Zaïnal
Concept & original design : Baudouin d'Aumeries
Assistance for programming : Marc-Olivier Méhu
Technical & hardware support : Manuel Goepfert

Contact : metmap@orbifly.com




SOURCES & CREDITS :

   NOAA       Earth
Advisory